sensor_id;sensor_type;location;lat;lon;timestamp;P1;durP1;ratioP1;P2;durP2;ratioP2
19173;SDS011;9719;49.322;8.536;2022-09-23T00:00:07;2.67;;;2.47;;
19173;SDS011;9719;49.322;8.536;2022-09-23T00:05:11;1.92;;;1.83;;
19173;SDS011;9719;49.322;8.536;2022-09-23T00:10:13;1.77;;;1.67;;
19173;SDS011;9719;49.322;8.536;2022-09-23T00:15:15;5.28;;;2.35;;
19173;SDS011;9719;49.322;8.536;2022-09-23T00:20:19;2.97;;;2.35;;
19173;SDS011;9719;49.322;8.536;2022-09-23T00:25:21;3.30;;;2.05;;
19173;SDS011;9719;49.322;8.536;2022-09-23T00:30:23;2.70;;;2.50;;
19173;SDS011;9719;49.322;8.536;2022-09-23T00:35:26;1.88;;;1.77;;
19173;SDS011;9719;49.322;8.536;2022-09-23T00:40:28;2.13;;;1.90;;
19173;SDS011;9719;49.322;8.536;2022-09-23T00:45:31;2.40;;;1.83;;
19173;SDS011;9719;49.322;8.536;2022-09-23T00:50:36;2.10;;;2.00;;
19173;SDS011;9719;49.322;8.536;2022-09-23T00:55:40;2.00;;;1.80;;
19173;SDS011;9719;49.322;8.536;2022-09-23T01:00:44;1.85;;;1.75;;
19173;SDS011;9719;49.322;8.536;2022-09-23T01:05:47;2.33;;;1.63;;
19173;SDS011;9719;49.322;8.536;2022-09-23T01:10:58;2.95;;;2.05;;
19173;SDS011;9719;49.322;8.536;2022-09-23T01:16:07;3.05;;;2.22;;
19173;SDS011;9719;49.322;8.536;2022-09-23T01:21:26;1.95;;;1.85;;
19173;SDS011;9719;49.322;8.536;2022-09-23T01:26:47;1.98;;;1.88;;
19173;SDS011;9719;49.322;8.536;2022-09-23T01:32:00;1.80;;;1.63;;
19173;SDS011;9719;49.322;8.536;2022-09-23T01:37:08;2.83;;;2.00;;
19173;SDS011;9719;49.322;8.536;2022-09-23T01:42:15;2.65;;;2.45;;
19173;SDS011;9719;49.322;8.536;2022-09-23T01:47:26;2.55;;;2.35;;
19173;SDS011;9719;49.322;8.536;2022-09-23T01:52:32;2.75;;;1.90;;
19173;SDS011;9719;49.322;8.536;2022-09-23T01:57:39;2.63;;;2.53;;
19173;SDS011;9719;49.322;8.536;2022-09-23T02:02:47;2.00;;;1.90;;
19173;SDS011;9719;49.322;8.536;2022-09-23T02:07:53;3.60;;;2.15;;
19173;SDS011;9719;49.322;8.536;2022-09-23T02:12:59;2.35;;;2.13;;
19173;SDS011;9719;49.322;8.536;2022-09-23T02:18:08;2.47;;;2.30;;
19173;SDS011;9719;49.322;8.536;2022-09-23T02:23:13;2.88;;;2.67;;
19173;SDS011;9719;49.322;8.536;2022-09-23T02:28:23;3.53;;;2.63;;
19173;SDS011;9719;49.322;8.536;2022-09-23T02:33:33;2.47;;;2.28;;
19173;SDS011;9719;49.322;8.536;2022-09-23T02:38:38;2.73;;;2.17;;
19173;SDS011;9719;49.322;8.536;2022-09-23T02:43:46;3.30;;;2.33;;
19173;SDS011;9719;49.322;8.536;2022-09-23T02:48:55;2.80;;;2.60;;
19173;SDS011;9719;49.322;8.536;2022-09-23T02:54:01;4.15;;;2.70;;
19173;SDS011;9719;49.322;8.536;2022-09-23T02:59:06;2.00;;;1.90;;
19173;SDS011;9719;49.322;8.536;2022-09-23T03:04:12;2.97;;;2.78;;
19173;SDS011;9719;49.322;8.536;2022-09-23T03:09:21;3.45;;;3.15;;
19173;SDS011;9719;49.322;8.536;2022-09-23T03:14:28;7.28;;;4.13;;
19173;SDS011;9719;49.322;8.536;2022-09-23T03:19:39;4.33;;;3.93;;
19173;SDS011;9719;49.322;8.536;2022-09-23T03:24:46;3.33;;;3.03;;
19173;SDS011;9719;49.322;8.536;2022-09-23T03:29:51;3.30;;;3.00;;
19173;SDS011;9719;49.322;8.536;2022-09-23T03:34:58;2.93;;;2.73;;
19173;SDS011;9719;49.322;8.536;2022-09-23T03:40:02;3.97;;;3.57;;
19173;SDS011;9719;49.322;8.536;2022-09-23T03:45:10;4.75;;;4.07;;
19173;SDS011;9719;49.322;8.536;2022-09-23T03:50:18;4.97;;;3.53;;
19173;SDS011;9719;49.322;8.536;2022-09-23T03:55:21;3.77;;;3.47;;
19173;SDS011;9719;49.322;8.536;2022-09-23T04:00:23;3.30;;;3.10;;
19173;SDS011;9719;49.322;8.536;2022-09-23T04:05:26;3.43;;;3.13;;
19173;SDS011;9719;49.322;8.536;2022-09-23T04:10:29;4.00;;;3.40;;
19173;SDS011;9719;49.322;8.536;2022-09-23T04:15:31;3.53;;;3.23;;
19173;SDS011;9719;49.322;8.536;2022-09-23T04:20:34;4.33;;;3.93;;
19173;SDS011;9719;49.322;8.536;2022-09-23T04:25:42;8.13;;;5.50;;
19173;SDS011;9719;49.322;8.536;2022-09-23T04:30:45;4.27;;;3.90;;
19173;SDS011;9719;49.322;8.536;2022-09-23T04:35:50;4.33;;;4.00;;
19173;SDS011;9719;49.322;8.536;2022-09-23T04:40:52;4.70;;;4.30;;
19173;SDS011;9719;49.322;8.536;2022-09-23T04:45:57;4.17;;;3.87;;
19173;SDS011;9719;49.322;8.536;2022-09-23T04:51:02;4.03;;;3.60;;
19173;SDS011;9719;49.322;8.536;2022-09-23T04:56:05;5.30;;;3.87;;
19173;SDS011;9719;49.322;8.536;2022-09-23T05:01:09;3.97;;;3.60;;
19173;SDS011;9719;49.322;8.536;2022-09-23T05:06:13;4.27;;;3.97;;
19173;SDS011;9719;49.322;8.536;2022-09-23T05:11:15;6.40;;;3.77;;
19173;SDS011;9719;49.322;8.536;2022-09-23T05:16:18;7.17;;;4.20;;
19173;SDS011;9719;49.322;8.536;2022-09-23T05:21:23;6.87;;;4.50;;
19173;SDS011;9719;49.322;8.536;2022-09-23T05:26:28;4.73;;;4.37;;
19173;SDS011;9719;49.322;8.536;2022-09-23T05:31:31;4.93;;;4.50;;
19173;SDS011;9719;49.322;8.536;2022-09-23T05:36:35;6.30;;;4.87;;
19173;SDS011;9719;49.322;8.536;2022-09-23T05:41:37;5.30;;;4.80;;
19173;SDS011;9719;49.322;8.536;2022-09-23T05:46:40;9.40;;;4.77;;
19173;SDS011;9719;49.322;8.536;2022-09-23T05:51:44;4.47;;;3.93;;
19173;SDS011;9719;49.322;8.536;2022-09-23T05:56:46;4.27;;;3.87;;
19173;SDS011;9719;49.322;8.536;2022-09-23T06:01:47;5.93;;;4.50;;
19173;SDS011;9719;49.322;8.536;2022-09-23T06:06:51;7.33;;;5.00;;
19173;SDS011;9719;49.322;8.536;2022-09-23T06:11:53;4.20;;;3.80;;
19173;SDS011;9719;49.322;8.536;2022-09-23T06:16:55;5.47;;;3.63;;
19173;SDS011;9719;49.322;8.536;2022-09-23T06:21:58;7.10;;;3.20;;
19173;SDS011;9719;49.322;8.536;2022-09-23T06:27:00;4.33;;;3.93;;
19173;SDS011;9719;49.322;8.536;2022-09-23T06:32:02;4.43;;;3.40;;
19173;SDS011;9719;49.322;8.536;2022-09-23T06:37:06;5.97;;;3.83;;
19173;SDS011;9719;49.322;8.536;2022-09-23T06:42:08;7.37;;;4.63;;
19173;SDS011;9719;49.322;8.536;2022-09-23T06:47:10;4.57;;;3.20;;
19173;SDS011;9719;49.322;8.536;2022-09-23T06:52:13;8.30;;;4.07;;
19173;SDS011;9719;49.322;8.536;2022-09-23T06:57:15;11.03;;;4.00;;
19173;SDS011;9719;49.322;8.536;2022-09-23T07:02:17;4.32;;;3.90;;
19173;SDS011;9719;49.322;8.536;2022-09-23T07:07:20;3.47;;;3.17;;
19173;SDS011;9719;49.322;8.536;2022-09-23T07:12:22;5.57;;;3.55;;
19173;SDS011;9719;49.322;8.536;2022-09-23T07:17:24;3.20;;;2.90;;
19173;SDS011;9719;49.322;8.536;2022-09-23T07:22:28;2.78;;;2.53;;
19173;SDS011;9719;49.322;8.536;2022-09-23T07:27:30;3.08;;;2.55;;
19173;SDS011;9719;49.322;8.536;2022-09-23T07:32:33;2.80;;;2.60;;
19173;SDS011;9719;49.322;8.536;2022-09-23T07:37:37;3.13;;;2.88;;
19173;SDS011;9719;49.322;8.536;2022-09-23T07:42:38;2.75;;;2.53;;
19173;SDS011;9719;49.322;8.536;2022-09-23T07:47:40;5.30;;;2.55;;
19173;SDS011;9719;49.322;8.536;2022-09-23T07:52:44;4.13;;;2.38;;
19173;SDS011;9719;49.322;8.536;2022-09-23T07:57:46;3.33;;;2.50;;
19173;SDS011;9719;49.322;8.536;2022-09-23T08:02:48;2.97;;;2.78;;
19173;SDS011;9719;49.322;8.536;2022-09-23T08:07:52;5.47;;;2.83;;
19173;SDS011;9719;49.322;8.536;2022-09-23T08:12:54;5.47;;;3.15;;
19173;SDS011;9719;49.322;8.536;2022-09-23T08:17:57;3.60;;;2.60;;
19173;SDS011;9719;49.322;8.536;2022-09-23T08:23:02;2.95;;;2.65;;
19173;SDS011;9719;49.322;8.536;2022-09-23T08:28:03;5.57;;;2.75;;
19173;SDS011;9719;49.322;8.536;2022-09-23T08:33:06;2.90;;;2.70;;
19173;SDS011;9719;49.322;8.536;2022-09-23T08:38:09;3.45;;;3.03;;
19173;SDS011;9719;49.322;8.536;2022-09-23T08:43:13;6.43;;;3.67;;
19173;SDS011;9719;49.322;8.536;2022-09-23T08:48:22;2.92;;;2.53;;
19173;SDS011;9719;49.322;8.536;2022-09-23T08:53:31;3.55;;;3.25;;
19173;SDS011;9719;49.322;8.536;2022-09-23T08:58:41;2.65;;;2.45;;
19173;SDS011;9719;49.322;8.536;2022-09-23T09:03:54;3.10;;;2.90;;
19173;SDS011;9719;49.322;8.536;2022-09-23T09:08:59;2.75;;;2.55;;
19173;SDS011;9719;49.322;8.536;2022-09-23T09:14:09;3.35;;;3.05;;
19173;SDS011;9719;49.322;8.536;2022-09-23T09:19:18;2.30;;;2.20;;
19173;SDS011;9719;49.322;8.536;2022-09-23T09:24:25;2.17;;;1.95;;
19173;SDS011;9719;49.322;8.536;2022-09-23T09:29:33;1.80;;;1.70;;
19173;SDS011;9719;49.322;8.536;2022-09-23T09:34:39;2.35;;;1.98;;
19173;SDS011;9719;49.322;8.536;2022-09-23T09:39:48;2.75;;;1.70;;
19173;SDS011;9719;49.322;8.536;2022-09-23T09:44:51;2.10;;;1.90;;
19173;SDS011;9719;49.322;8.536;2022-09-23T09:50:02;2.25;;;1.80;;
19173;SDS011;9719;49.322;8.536;2022-09-23T09:55:23;2.05;;;1.95;;
19173;SDS011;9719;49.322;8.536;2022-09-23T10:00:37;1.85;;;1.75;;
19173;SDS011;9719;49.322;8.536;2022-09-23T10:05:47;2.17;;;1.95;;
19173;SDS011;9719;49.322;8.536;2022-09-23T10:10:53;2.00;;;1.83;;
19173;SDS011;9719;49.322;8.536;2022-09-23T10:16:02;3.13;;;1.65;;
19173;SDS011;9719;49.322;8.536;2022-09-23T10:21:05;4.00;;;1.92;;
19173;SDS011;9719;49.322;8.536;2022-09-23T10:26:11;3.20;;;2.08;;
19173;SDS011;9719;49.322;8.536;2022-09-23T10:31:20;2.80;;;1.85;;
19173;SDS011;9719;49.322;8.536;2022-09-23T10:36:25;24.77;;;4.30;;
19173;SDS011;9719;49.322;8.536;2022-09-23T10:41:30;4.00;;;2.60;;
19173;SDS011;9719;49.322;8.536;2022-09-23T10:46:58;2.22;;;2.05;;
19173;SDS011;9719;49.322;8.536;2022-09-23T10:52:10;2.17;;;1.73;;
19173;SDS011;9719;49.322;8.536;2022-09-23T10:57:29;3.33;;;1.45;;
19173;SDS011;9719;49.322;8.536;2022-09-23T11:08:38;2.15;;;1.67;;
19173;SDS011;9719;49.322;8.536;2022-09-23T11:13:59;3.30;;;1.83;;
19173;SDS011;9719;49.322;8.536;2022-09-23T11:19:29;2.25;;;1.80;;
19173;SDS011;9719;49.322;8.536;2022-09-23T11:24:59;4.10;;;1.63;;
19173;SDS011;9719;49.322;8.536;2022-09-23T11:30:24;2.45;;;2.00;;
19173;SDS011;9719;49.322;8.536;2022-09-23T11:35:36;2.10;;;1.90;;
19173;SDS011;9719;49.322;8.536;2022-09-23T11:40:41;2.30;;;1.80;;
19173;SDS011;9719;49.322;8.536;2022-09-23T11:45:48;1.77;;;1.42;;
19173;SDS011;9719;49.322;8.536;2022-09-23T11:50:58;2.75;;;1.73;;
19173;SDS011;9719;49.322;8.536;2022-09-23T11:56:04;1.90;;;1.73;;
19173;SDS011;9719;49.322;8.536;2022-09-23T12:01:15;2.28;;;1.50;;
19173;SDS011;9719;49.322;8.536;2022-09-23T12:06:25;2.28;;;1.73;;
19173;SDS011;9719;49.322;8.536;2022-09-23T12:11:33;1.90;;;1.80;;
19173;SDS011;9719;49.322;8.536;2022-09-23T12:16:57;1.98;;;1.77;;
19173;SDS011;9719;49.322;8.536;2022-09-23T12:22:19;7.25;;;2.60;;
19173;SDS011;9719;49.322;8.536;2022-09-23T12:27:31;1.83;;;1.67;;
19173;SDS011;9719;49.322;8.536;2022-09-23T12:32:39;1.83;;;1.40;;
19173;SDS011;9719;49.322;8.536;2022-09-23T12:37:42;2.00;;;1.70;;
19173;SDS011;9719;49.322;8.536;2022-09-23T12:42:44;1.50;;;1.40;;
19173;SDS011;9719;49.322;8.536;2022-09-23T12:47:49;2.90;;;1.45;;
19173;SDS011;9719;49.322;8.536;2022-09-23T12:52:51;3.72;;;1.88;;
19173;SDS011;9719;49.322;8.536;2022-09-23T12:57:53;3.55;;;1.63;;
19173;SDS011;9719;49.322;8.536;2022-09-23T13:02:57;4.05;;;1.55;;
19173;SDS011;9719;49.322;8.536;2022-09-23T13:08:18;2.92;;;1.63;;
19173;SDS011;9719;49.322;8.536;2022-09-23T13:13:24;3.75;;;1.23;;
19173;SDS011;9719;49.322;8.536;2022-09-23T13:24:18;1.48;;;1.38;;
19173;SDS011;9719;49.322;8.536;2022-09-23T13:29:22;1.65;;;1.50;;
19173;SDS011;9719;49.322;8.536;2022-09-23T13:34:29;1.55;;;1.45;;
19173;SDS011;9719;49.322;8.536;2022-09-23T13:39:34;1.98;;;1.85;;
19173;SDS011;9719;49.322;8.536;2022-09-23T13:44:36;1.25;;;1.17;;
19173;SDS011;9719;49.322;8.536;2022-09-23T13:49:42;3.47;;;1.50;;
19173;SDS011;9719;49.322;8.536;2022-09-23T13:54:47;1.52;;;1.27;;
19173;SDS011;9719;49.322;8.536;2022-09-23T13:59:50;2.67;;;1.42;;
19173;SDS011;9719;49.322;8.536;2022-09-23T14:04:56;1.45;;;1.33;;
19173;SDS011;9719;49.322;8.536;2022-09-23T14:09:58;2.13;;;1.85;;
19173;SDS011;9719;49.322;8.536;2022-09-23T14:15:00;0.98;;;0.98;;
19173;SDS011;9719;49.322;8.536;2022-09-23T14:20:04;1.67;;;1.13;;
19173;SDS011;9719;49.322;8.536;2022-09-23T14:25:14;1.75;;;1.65;;
19173;SDS011;9719;49.322;8.536;2022-09-23T14:30:17;1.83;;;1.50;;
19173;SDS011;9719;49.322;8.536;2022-09-23T14:35:22;2.05;;;1.42;;
19173;SDS011;9719;49.322;8.536;2022-09-23T14:40:27;3.10;;;2.20;;
19173;SDS011;9719;49.322;8.536;2022-09-23T14:45:30;1.50;;;1.40;;
19173;SDS011;9719;49.322;8.536;2022-09-23T14:50:36;3.17;;;1.88;;
19173;SDS011;9719;49.322;8.536;2022-09-23T14:55:46;2.42;;;1.65;;
19173;SDS011;9719;49.322;8.536;2022-09-23T15:00:50;1.80;;;1.63;;
19173;SDS011;9719;49.322;8.536;2022-09-23T15:05:56;3.10;;;1.98;;
19173;SDS011;9719;49.322;8.536;2022-09-23T15:11:01;4.72;;;2.08;;
19173;SDS011;9719;49.322;8.536;2022-09-23T15:16:04;2.15;;;1.30;;
19173;SDS011;9719;49.322;8.536;2022-09-23T15:21:08;3.10;;;1.98;;
19173;SDS011;9719;49.322;8.536;2022-09-23T15:26:13;1.90;;;1.80;;
19173;SDS011;9719;49.322;8.536;2022-09-23T15:31:17;3.17;;;2.10;;
19173;SDS011;9719;49.322;8.536;2022-09-23T15:36:22;1.90;;;1.73;;
19173;SDS011;9719;49.322;8.536;2022-09-23T15:41:27;1.60;;;1.30;;
19173;SDS011;9719;49.322;8.536;2022-09-23T15:46:32;1.73;;;1.63;;
19173;SDS011;9719;49.322;8.536;2022-09-23T15:51:35;2.85;;;1.83;;
19173;SDS011;9719;49.322;8.536;2022-09-23T15:56:37;2.08;;;1.40;;
19173;SDS011;9719;49.322;8.536;2022-09-23T16:01:39;3.55;;;1.95;;
19173;SDS011;9719;49.322;8.536;2022-09-23T16:06:44;3.80;;;2.40;;
19173;SDS011;9719;49.322;8.536;2022-09-23T16:11:47;2.90;;;1.92;;
19173;SDS011;9719;49.322;8.536;2022-09-23T16:16:52;2.55;;;2.35;;
19173;SDS011;9719;49.322;8.536;2022-09-23T16:21:55;2.42;;;1.75;;
19173;SDS011;9719;49.322;8.536;2022-09-23T16:26:57;4.30;;;2.03;;
19173;SDS011;9719;49.322;8.536;2022-09-23T16:32:02;4.72;;;2.50;;
19173;SDS011;9719;49.322;8.536;2022-09-23T16:37:07;4.03;;;2.20;;
19173;SDS011;9719;49.322;8.536;2022-09-23T16:42:12;2.88;;;2.58;;
19173;SDS011;9719;49.322;8.536;2022-09-23T16:47:14;5.78;;;2.95;;
19173;SDS011;9719;49.322;8.536;2022-09-23T16:52:17;4.93;;;2.17;;
19173;SDS011;9719;49.322;8.536;2022-09-23T16:57:19;6.22;;;2.58;;
19173;SDS011;9719;49.322;8.536;2022-09-23T17:02:21;4.32;;;2.25;;
19173;SDS011;9719;49.322;8.536;2022-09-23T17:07:41;4.97;;;2.63;;
19173;SDS011;9719;49.322;8.536;2022-09-23T17:12:43;5.18;;;2.65;;
19173;SDS011;9719;49.322;8.536;2022-09-23T17:17:46;9.43;;;2.97;;
19173;SDS011;9719;49.322;8.536;2022-09-23T17:22:49;9.68;;;3.30;;
19173;SDS011;9719;49.322;8.536;2022-09-23T17:27:51;6.47;;;3.05;;
19173;SDS011;9719;49.322;8.536;2022-09-23T17:32:54;5.22;;;2.50;;
19173;SDS011;9719;49.322;8.536;2022-09-23T17:37:57;2.50;;;2.10;;
19173;SDS011;9719;49.322;8.536;2022-09-23T17:42:59;3.72;;;2.20;;
19173;SDS011;9719;49.322;8.536;2022-09-23T17:48:01;4.78;;;2.03;;
19173;SDS011;9719;49.322;8.536;2022-09-23T17:53:05;3.97;;;2.70;;
19173;SDS011;9719;49.322;8.536;2022-09-23T17:58:07;3.63;;;3.33;;
19173;SDS011;9719;49.322;8.536;2022-09-23T18:03:09;3.08;;;2.78;;
19173;SDS011;9719;49.322;8.536;2022-09-23T18:08:12;4.43;;;2.70;;
19173;SDS011;9719;49.322;8.536;2022-09-23T18:13:14;5.35;;;2.75;;
19173;SDS011;9719;49.322;8.536;2022-09-23T18:18:16;4.55;;;3.45;;
19173;SDS011;9719;49.322;8.536;2022-09-23T18:23:20;4.82;;;3.58;;
19173;SDS011;9719;49.322;8.536;2022-09-23T18:28:22;5.78;;;4.35;;
19173;SDS011;9719;49.322;8.536;2022-09-23T18:33:24;5.25;;;4.30;;
19173;SDS011;9719;49.322;8.536;2022-09-23T18:38:28;6.75;;;4.00;;
19173;SDS011;9719;49.322;8.536;2022-09-23T18:43:30;4.38;;;3.97;;
19173;SDS011;9719;49.322;8.536;2022-09-23T18:48:33;4.38;;;3.97;;
19173;SDS011;9719;49.322;8.536;2022-09-23T18:53:54;9.35;;;5.75;;
19173;SDS011;9719;49.322;8.536;2022-09-23T18:58:57;6.85;;;4.40;;
19173;SDS011;9719;49.322;8.536;2022-09-23T19:04:00;9.00;;;4.70;;
19173;SDS011;9719;49.322;8.536;2022-09-23T19:09:04;8.38;;;4.93;;
19173;SDS011;9719;49.322;8.536;2022-09-23T19:14:07;5.45;;;4.53;;
19173;SDS011;9719;49.322;8.536;2022-09-23T19:19:10;6.32;;;3.47;;
19173;SDS011;9719;49.322;8.536;2022-09-23T19:24:13;4.20;;;3.80;;
19173;SDS011;9719;49.322;8.536;2022-09-23T19:29:19;4.90;;;4.13;;
19173;SDS011;9719;49.322;8.536;2022-09-23T19:34:22;12.98;;;4.88;;
19173;SDS011;9719;49.322;8.536;2022-09-23T19:39:29;6.50;;;4.88;;
19173;SDS011;9719;49.322;8.536;2022-09-23T19:44:31;6.38;;;4.82;;
19173;SDS011;9719;49.322;8.536;2022-09-23T19:49:40;5.00;;;4.25;;
19173;SDS011;9719;49.322;8.536;2022-09-23T19:54:43;6.53;;;5.07;;
19173;SDS011;9719;49.322;8.536;2022-09-23T19:59:47;5.53;;;4.97;;
19173;SDS011;9719;49.322;8.536;2022-09-23T20:04:49;5.28;;;4.80;;
19173;SDS011;9719;49.322;8.536;2022-09-23T20:09:53;6.53;;;4.60;;
19173;SDS011;9719;49.322;8.536;2022-09-23T20:14:55;5.82;;;5.05;;
19173;SDS011;9719;49.322;8.536;2022-09-23T20:19:57;6.13;;;5.05;;
19173;SDS011;9719;49.322;8.536;2022-09-23T20:25:01;7.10;;;6.15;;
19173;SDS011;9719;49.322;8.536;2022-09-23T20:30:04;8.35;;;7.25;;
19173;SDS011;9719;49.322;8.536;2022-09-23T20:35:07;5.97;;;5.32;;
19173;SDS011;9719;49.322;8.536;2022-09-23T20:40:10;6.57;;;5.55;;
19173;SDS011;9719;49.322;8.536;2022-09-23T20:45:12;5.75;;;4.80;;
19173;SDS011;9719;49.322;8.536;2022-09-23T20:50:15;10.82;;;7.93;;
19173;SDS011;9719;49.322;8.536;2022-09-23T20:55:19;7.20;;;4.72;;
19173;SDS011;9719;49.322;8.536;2022-09-23T21:00:21;7.22;;;5.20;;
19173;SDS011;9719;49.322;8.536;2022-09-23T21:05:23;6.82;;;5.25;;
19173;SDS011;9719;49.322;8.536;2022-09-23T21:10:27;5.72;;;5.22;;
19173;SDS011;9719;49.322;8.536;2022-09-23T21:15:29;7.50;;;5.85;;
19173;SDS011;9719;49.322;8.536;2022-09-23T21:20:31;6.15;;;5.55;;
19173;SDS011;9719;49.322;8.536;2022-09-23T21:25:34;6.80;;;4.78;;
19173;SDS011;9719;49.322;8.536;2022-09-23T21:30:36;6.75;;;4.55;;
19173;SDS011;9719;49.322;8.536;2022-09-23T21:35:38;6.65;;;4.97;;
19173;SDS011;9719;49.322;8.536;2022-09-23T21:40:42;5.60;;;5.15;;
19173;SDS011;9719;49.322;8.536;2022-09-23T21:45:56;5.65;;;4.55;;
19173;SDS011;9719;49.322;8.536;2022-09-23T21:50:59;5.38;;;4.75;;
19173;SDS011;9719;49.322;8.536;2022-09-23T21:56:04;5.55;;;5.05;;
19173;SDS011;9719;49.322;8.536;2022-09-23T22:01:07;6.20;;;4.63;;
19173;SDS011;9719;49.322;8.536;2022-09-23T22:06:11;4.70;;;4.30;;
19173;SDS011;9719;49.322;8.536;2022-09-23T22:11:20;4.90;;;4.50;;
19173;SDS011;9719;49.322;8.536;2022-09-23T22:16:41;6.85;;;6.15;;
19173;SDS011;9719;49.322;8.536;2022-09-23T22:21:43;5.82;;;5.32;;
19173;SDS011;9719;49.322;8.536;2022-09-23T22:26:47;6.90;;;6.13;;
19173;SDS011;9719;49.322;8.536;2022-09-23T22:31:49;6.50;;;5.85;;
19173;SDS011;9719;49.322;8.536;2022-09-23T22:37:09;12.55;;;9.05;;
19173;SDS011;9719;49.322;8.536;2022-09-23T22:42:12;12.50;;;10.32;;
19173;SDS011;9719;49.322;8.536;2022-09-23T22:47:14;10.18;;;9.02;;
19173;SDS011;9719;49.322;8.536;2022-09-23T22:52:17;9.52;;;8.60;;
19173;SDS011;9719;49.322;8.536;2022-09-23T22:57:24;5.40;;;4.97;;
19173;SDS011;9719;49.322;8.536;2022-09-23T23:02:27;6.32;;;5.72;;
19173;SDS011;9719;49.322;8.536;2022-09-23T23:07:30;7.30;;;6.13;;
19173;SDS011;9719;49.322;8.536;2022-09-23T23:12:35;7.70;;;5.78;;
19173;SDS011;9719;49.322;8.536;2022-09-23T23:17:39;6.30;;;5.20;;
19173;SDS011;9719;49.322;8.536;2022-09-23T23:22:42;6.38;;;5.50;;
19173;SDS011;9719;49.322;8.536;2022-09-23T23:27:46;6.65;;;5.15;;
19173;SDS011;9719;49.322;8.536;2022-09-23T23:32:48;5.32;;;4.65;;
19173;SDS011;9719;49.322;8.536;2022-09-23T23:37:50;5.38;;;4.88;;
19173;SDS011;9719;49.322;8.536;2022-09-23T23:42:53;6.72;;;5.20;;
19173;SDS011;9719;49.322;8.536;2022-09-23T23:47:55;5.65;;;4.97;;
19173;SDS011;9719;49.322;8.536;2022-09-23T23:52:57;4.75;;;4.35;;
19173;SDS011;9719;49.322;8.536;2022-09-23T23:58:00;5.72;;;5.22;;
